sensor_id;sensor_type;location;lat;lon;timestamp;pressure;altitude;pressure_sealevel;temperature;humidity
44385;BME280;30101;32.778;34.994;2022-08-14T00:03:22;96912.97;;;25.46;67.84
44385;BME280;30101;32.778;34.994;2022-08-14T00:08:32;96909.75;;;25.44;68.25
44385;BME280;30101;32.778;34.994;2022-08-14T00:13:47;96912.34;;;25.40;67.84
44385;BME280;30101;32.778;34.994;2022-08-14T00:18:54;96904.44;;;25.39;68.27
44385;BME280;30101;32.778;34.994;2022-08-14T00:24:19;96903.66;;;25.38;68.05
44385;BME280;30101;32.778;34.994;2022-08-14T00:29:31;96905.91;;;25.36;68.50
44385;BME280;30101;32.778;34.994;2022-08-14T00:34:44;96913.44;;;25.39;68.18
44385;BME280;30101;32.778;34.994;2022-08-14T00:39:50;96912.00;;;25.42;68.14
44385;BME280;30101;32.778;34.994;2022-08-14T00:44:55;96912.63;;;25.47;68.25
44385;BME280;30101;32.778;34.994;2022-08-14T00:49:58;96910.69;;;25.48;68.25
44385;BME280;30101;32.778;34.994;2022-08-14T00:55:04;96915.38;;;25.47;68.51
44385;BME280;30101;32.778;34.994;2022-08-14T01:00:13;96916.16;;;25.48;68.34
44385;BME280;30101;32.778;34.994;2022-08-14T01:05:38;96907.16;;;25.47;68.42
44385;BME280;30101;32.778;34.994;2022-08-14T01:10:54;96902.84;;;25.46;68.46
44385;BME280;30101;32.778;34.994;2022-08-14T01:16:00;96901.53;;;25.44;68.83
44385;BME280;30101;32.778;34.994;2022-08-14T01:21:10;96897.38;;;25.46;68.65
44385;BME280;30101;32.778;34.994;2022-08-14T01:26:17;96888.38;;;25.46;68.88
44385;BME280;30101;32.778;34.994;2022-08-14T01:31:39;96898.47;;;25.45;69.28
44385;BME280;30101;32.778;34.994;2022-08-14T01:36:44;96902.03;;;25.46;68.98
44385;BME280;30101;32.778;34.994;2022-08-14T01:41:48;96901.22;;;25.45;69.24
44385;BME280;30101;32.778;34.994;2022-08-14T01:46:53;96889.34;;;25.41;69.20
44385;BME280;30101;32.778;34.994;2022-08-14T01:52:07;96895.44;;;25.38;69.03
44385;BME280;30101;32.778;34.994;2022-08-14T01:57:32;96895.31;;;25.35;69.13
44385;BME280;30101;32.778;34.994;2022-08-14T02:02:57;96898.97;;;25.39;68.86
44385;BME280;30101;32.778;34.994;2022-08-14T02:08:01;96895.78;;;25.37;68.92
44385;BME280;30101;32.778;34.994;2022-08-14T02:13:12;96897.25;;;25.34;68.84
44385;BME280;30101;32.778;34.994;2022-08-14T02:18:18;96907.06;;;25.35;68.66
44385;BME280;30101;32.778;34.994;2022-08-14T02:23:21;96897.72;;;25.36;69.18
44385;BME280;30101;32.778;34.994;2022-08-14T02:28:34;96895.78;;;25.37;68.95
44385;BME280;30101;32.778;34.994;2022-08-14T02:34:10;96893.84;;;25.37;69.03
44385;BME280;30101;32.778;34.994;2022-08-14T02:39:29;96901.25;;;25.37;69.13
44385;BME280;30101;32.778;34.994;2022-08-14T02:44:33;96898.38;;;25.33;69.49
44385;BME280;30101;32.778;34.994;2022-08-14T02:49:41;96890.81;;;25.30;69.52
44385;BME280;30101;32.778;34.994;2022-08-14T02:54:45;96903.34;;;25.31;69.64
44385;BME280;30101;32.778;34.994;2022-08-14T02:59:49;96908.03;;;25.31;69.69
44385;BME280;30101;32.778;34.994;2022-08-14T03:04:54;96901.59;;;25.26;69.56
44385;BME280;30101;32.778;34.994;2022-08-14T03:09:58;96907.06;;;25.26;69.38
44385;BME280;30101;32.778;34.994;2022-08-14T03:15:22;96904.94;;;25.32;69.46
44385;BME280;30101;32.778;34.994;2022-08-14T03:20:28;96896.25;;;25.39;69.21
44385;BME280;30101;32.778;34.994;2022-08-14T03:25:32;96903.47;;;25.43;69.45
44385;BME280;30101;32.778;34.994;2022-08-14T03:30:40;96907.50;;;25.46;69.70
44385;BME280;30101;32.778;34.994;2022-08-14T03:35:45;96917.31;;;25.47;69.42
44385;BME280;30101;32.778;34.994;2022-08-14T03:41:10;96907.63;;;25.49;69.88
44385;BME280;30101;32.778;34.994;2022-08-14T03:46:16;96900.41;;;25.53;69.59
44385;BME280;30101;32.778;34.994;2022-08-14T03:51:39;96902.47;;;25.56;69.73
44385;BME280;30101;32.778;34.994;2022-08-14T03:56:43;96904.56;;;25.60;69.76
44385;BME280;30101;32.778;34.994;2022-08-14T04:01:52;96906.63;;;25.63;69.98
44385;BME280;30101;32.778;34.994;2022-08-14T04:07:04;96898.25;;;25.68;69.79
44385;BME280;30101;32.778;34.994;2022-08-14T04:12:08;96908.03;;;25.69;69.61
44385;BME280;30101;32.778;34.994;2022-08-14T04:17:15;96911.25;;;25.71;69.45
44385;BME280;30101;32.778;34.994;2022-08-14T04:22:20;96906.44;;;25.68;69.66
44385;BME280;30101;32.778;34.994;2022-08-14T04:27:24;96902.56;;;25.77;69.65
44385;BME280;30101;32.778;34.994;2022-08-14T04:32:30;96914.53;;;25.94;69.17
44385;BME280;30101;32.778;34.994;2022-08-14T04:37:54;96909.97;;;26.06;69.05
44385;BME280;30101;32.778;34.994;2022-08-14T04:42:58;96913.72;;;26.23;69.12
44385;BME280;30101;32.778;34.994;2022-08-14T04:48:12;96912.34;;;26.38;68.66
44385;BME280;30101;32.778;34.994;2022-08-14T04:53:38;96907.84;;;26.33;68.98
44385;BME280;30101;32.778;34.994;2022-08-14T04:58:44;96910.44;;;26.59;68.27
44385;BME280;30101;32.778;34.994;2022-08-14T05:03:50;96917.19;;;26.61;67.79
44385;BME280;30101;32.778;34.994;2022-08-14T05:08:54;96913.69;;;26.52;68.05
44385;BME280;30101;32.778;34.994;2022-08-14T05:14:03;96918.19;;;26.57;67.80
44385;BME280;30101;32.778;34.994;2022-08-14T05:19:27;96925.81;;;26.72;67.50
44385;BME280;30101;32.778;34.994;2022-08-14T05:24:32;96921.88;;;26.94;67.08
44385;BME280;30101;32.778;34.994;2022-08-14T05:29:35;96922.69;;;27.15;66.44
44385;BME280;30101;32.778;34.994;2022-08-14T05:34:39;96924.00;;;27.42;65.83
44385;BME280;30101;32.778;34.994;2022-08-14T05:39:47;96936.56;;;27.43;65.63
44385;BME280;30101;32.778;34.994;2022-08-14T05:44:51;96939.78;;;27.46;65.45
44385;BME280;30101;32.778;34.994;2022-08-14T05:49:58;96953.41;;;27.54;65.16
44385;BME280;30101;32.778;34.994;2022-08-14T05:55:01;96950.41;;;27.47;65.33
44385;BME280;30101;32.778;34.994;2022-08-14T06:00:05;96953.59;;;27.94;64.32
44385;BME280;30101;32.778;34.994;2022-08-14T06:05:10;96960.31;;;28.21;63.71
44385;BME280;30101;32.778;34.994;2022-08-14T06:10:14;96968.31;;;27.90;64.16
44385;BME280;30101;32.778;34.994;2022-08-14T06:15:21;96963.19;;;28.01;64.05
44385;BME280;30101;32.778;34.994;2022-08-14T06:20:31;96961.69;;;28.28;63.57
44385;BME280;30101;32.778;34.994;2022-08-14T06:25:36;96960.19;;;28.67;62.62
44385;BME280;30101;32.778;34.994;2022-08-14T06:30:40;96961.59;;;28.48;63.31
44385;BME280;30101;32.778;34.994;2022-08-14T06:35:49;96967.31;;;28.31;63.37
44385;BME280;30101;32.778;34.994;2022-08-14T06:40:53;96974.28;;;28.16;63.55
44385;BME280;30101;32.778;34.994;2022-08-14T06:45:56;96979.69;;;28.37;63.28
44385;BME280;30101;32.778;34.994;2022-08-14T06:51:02;96984.59;;;29.80;59.59
44385;BME280;30101;32.778;34.994;2022-08-14T06:56:07;96981.19;;;30.50;59.07
44385;BME280;30101;32.778;34.994;2022-08-14T07:01:11;96975.47;;;30.94;58.71
44385;BME280;30101;32.778;34.994;2022-08-14T07:06:15;96973.88;;;30.58;59.24
44385;BME280;30101;32.778;34.994;2022-08-14T07:11:39;96970.81;;;29.96;59.92
44385;BME280;30101;32.778;34.994;2022-08-14T07:16:42;96982.16;;;29.35;61.08
44385;BME280;30101;32.778;34.994;2022-08-14T07:21:46;96981.78;;;29.21;61.31
44385;BME280;30101;32.778;34.994;2022-08-14T07:26:52;96976.22;;;29.33;61.48
44385;BME280;30101;32.778;34.994;2022-08-14T07:31:55;96983.31;;;29.34;60.89
44385;BME280;30101;32.778;34.994;2022-08-14T07:36:59;96985.63;;;29.32;61.02
44385;BME280;30101;32.778;34.994;2022-08-14T07:42:03;96984.03;;;29.31;61.20
44385;BME280;30101;32.778;34.994;2022-08-14T07:47:09;96991.72;;;29.53;61.16
44385;BME280;30101;32.778;34.994;2022-08-14T07:52:12;96992.78;;;29.49;60.27
44385;BME280;30101;32.778;34.994;2022-08-14T07:57:24;96994.03;;;29.51;61.16
44385;BME280;30101;32.778;34.994;2022-08-14T08:02:29;96989.13;;;30.20;59.66
44385;BME280;30101;32.778;34.994;2022-08-14T08:07:37;96988.81;;;30.57;58.85
44385;BME280;30101;32.778;34.994;2022-08-14T08:12:41;96988.69;;;30.18;58.66
44385;BME280;30101;32.778;34.994;2022-08-14T08:17:47;96979.53;;;29.98;59.19
44385;BME280;30101;32.778;34.994;2022-08-14T08:23:04;96977.91;;;30.29;58.75
44385;BME280;30101;32.778;34.994;2022-08-14T08:28:19;96976.97;;;30.72;57.64
44385;BME280;30101;32.778;34.994;2022-08-14T08:33:33;96965.38;;;31.02;57.57
44385;BME280;30101;32.778;34.994;2022-08-14T08:38:39;96976.50;;;31.05;57.27
44385;BME280;30101;32.778;34.994;2022-08-14T08:44:03;96979.59;;;31.04;57.36
44385;BME280;30101;32.778;34.994;2022-08-14T08:49:18;96975.78;;;31.28;56.73
44385;BME280;30101;32.778;34.994;2022-08-14T08:54:22;96985.94;;;31.66;56.45
44385;BME280;30101;32.778;34.994;2022-08-14T08:59:30;96975.72;;;31.24;56.75
44385;BME280;30101;32.778;34.994;2022-08-14T09:04:40;96972.28;;;31.11;56.71
44385;BME280;30101;32.778;34.994;2022-08-14T09:09:55;96969.94;;;31.13;56.19
44385;BME280;30101;32.778;34.994;2022-08-14T09:15:04;96974.81;;;31.01;56.47
44385;BME280;30101;32.778;34.994;2022-08-14T09:20:14;96979.16;;;31.02;56.42
44385;BME280;30101;32.778;34.994;2022-08-14T09:25:28;96969.44;;;31.08;55.81
44385;BME280;30101;32.778;34.994;2022-08-14T09:30:54;96981.63;;;31.07;55.62
44385;BME280;30101;32.778;34.994;2022-08-14T09:46:25;96971.44;;;30.72;56.52
44385;BME280;30101;32.778;34.994;2022-08-14T09:51:30;96968.88;;;30.63;56.22
44385;BME280;30101;32.778;34.994;2022-08-14T09:56:55;96974.88;;;30.50;56.26
44385;BME280;30101;32.778;34.994;2022-08-14T10:02:22;96975.09;;;30.25;56.79
44385;BME280;30101;32.778;34.994;2022-08-14T10:07:33;96976.88;;;30.18;57.15
44385;BME280;30101;32.778;34.994;2022-08-14T10:12:46;96972.69;;;30.24;56.99
44385;BME280;30101;32.778;34.994;2022-08-14T10:28:19;96982.66;;;30.13;57.03
44385;BME280;30101;32.778;34.994;2022-08-14T10:33:56;96970.59;;;30.17;56.80
44385;BME280;30101;32.778;34.994;2022-08-14T10:39:08;96980.28;;;30.11;57.09
44385;BME280;30101;32.778;34.994;2022-08-14T10:44:21;96958.22;;;29.95;57.28
44385;BME280;30101;32.778;34.994;2022-08-14T10:49:25;96969.03;;;29.88;57.07
44385;BME280;30101;32.778;34.994;2022-08-14T10:59:46;96968.06;;;29.80;57.15
44385;BME280;30101;32.778;34.994;2022-08-14T11:05:17;96962.91;;;29.95;57.20
44385;BME280;30101;32.778;34.994;2022-08-14T11:10:45;96963.19;;;30.05;56.89
44385;BME280;30101;32.778;34.994;2022-08-14T11:15:49;96950.78;;;30.12;56.27
44385;BME280;30101;32.778;34.994;2022-08-14T11:20:56;96940.91;;;30.11;56.78
44385;BME280;30101;32.778;34.994;2022-08-14T11:26:00;96941.16;;;30.05;56.89
44385;BME280;30101;32.778;34.994;2022-08-14T11:31:10;96949.41;;;30.05;56.64
44385;BME280;30101;32.778;34.994;2022-08-14T11:36:13;96950.31;;;29.94;56.81
44385;BME280;30101;32.778;34.994;2022-08-14T11:41:20;96947.47;;;29.74;57.48
44385;BME280;30101;32.778;34.994;2022-08-14T11:46:26;96938.03;;;29.60;57.38
44385;BME280;30101;32.778;34.994;2022-08-14T11:51:51;96927.56;;;29.49;57.56
44385;BME280;30101;32.778;34.994;2022-08-14T11:56:58;96941.06;;;29.54;57.64
44385;BME280;30101;32.778;34.994;2022-08-14T12:02:09;96920.78;;;29.47;57.77
44385;BME280;30101;32.778;34.994;2022-08-14T12:07:33;96919.91;;;29.43;57.94
44385;BME280;30101;32.778;34.994;2022-08-14T12:12:40;96922.47;;;29.36;57.78
44385;BME280;30101;32.778;34.994;2022-08-14T12:17:52;96918.88;;;29.19;58.48
44385;BME280;30101;32.778;34.994;2022-08-14T12:22:59;96921.69;;;29.07;58.45
44385;BME280;30101;32.778;34.994;2022-08-14T12:28:11;96906.63;;;29.01;58.87
44385;BME280;30101;32.778;34.994;2022-08-14T12:33:34;96915.97;;;29.12;59.21
44385;BME280;30101;32.778;34.994;2022-08-14T12:38:40;96906.25;;;29.02;59.25
44385;BME280;30101;32.778;34.994;2022-08-14T12:43:58;96901.06;;;29.13;58.85
44385;BME280;30101;32.778;34.994;2022-08-14T12:49:13;96904.31;;;29.03;59.25
44385;BME280;30101;32.778;34.994;2022-08-14T12:54:21;96906.63;;;29.01;58.75
44385;BME280;30101;32.778;34.994;2022-08-14T12:59:31;96899.16;;;29.01;58.89
44385;BME280;30101;32.778;34.994;2022-08-14T13:04:47;96913.81;;;29.06;58.62
44385;BME280;30101;32.778;34.994;2022-08-14T13:09:56;96911.06;;;29.06;58.13
44385;BME280;30101;32.778;34.994;2022-08-14T13:14:59;96915.75;;;29.05;58.24
44385;BME280;30101;32.778;34.994;2022-08-14T13:20:13;96908.88;;;29.11;58.15
44385;BME280;30101;32.778;34.994;2022-08-14T13:25:27;96905.41;;;29.14;58.49
44385;BME280;30101;32.778;34.994;2022-08-14T13:30:31;96903.44;;;29.15;58.49
44385;BME280;30101;32.778;34.994;2022-08-14T13:35:36;96910.28;;;29.05;58.38
44385;BME280;30101;32.778;34.994;2022-08-14T13:40:40;96905.13;;;28.91;58.41
44385;BME280;30101;32.778;34.994;2022-08-14T13:45:44;96907.22;;;28.82;58.69
44385;BME280;30101;32.778;34.994;2022-08-14T13:51:04;96909.06;;;28.78;58.86
44385;BME280;30101;32.778;34.994;2022-08-14T13:56:13;96921.22;;;28.77;58.39
44385;BME280;30101;32.778;34.994;2022-08-14T14:01:39;96915.63;;;28.73;58.74
44385;BME280;30101;32.778;34.994;2022-08-14T14:06:48;96909.09;;;28.66;58.65
44385;BME280;30101;32.778;34.994;2022-08-14T14:12:00;96900.78;;;28.62;58.66
44385;BME280;30101;32.778;34.994;2022-08-14T14:17:08;96901.22;;;28.64;58.54
44385;BME280;30101;32.778;34.994;2022-08-14T14:22:13;96897.72;;;28.52;59.14
44385;BME280;30101;32.778;34.994;2022-08-14T14:27:39;96890.06;;;28.45;59.23
44385;BME280;30101;32.778;34.994;2022-08-14T14:32:54;96899.81;;;28.30;59.17
44385;BME280;30101;32.778;34.994;2022-08-14T14:38:14;96896.16;;;28.26;59.40
44385;BME280;30101;32.778;34.994;2022-08-14T14:43:19;96898.47;;;28.12;59.58
44385;BME280;30101;32.778;34.994;2022-08-14T14:48:26;96886.13;;;28.06;59.46
44385;BME280;30101;32.778;34.994;2022-08-14T14:53:31;96880.06;;;27.88;60.04
44385;BME280;30101;32.778;34.994;2022-08-14T14:58:41;96884.75;;;27.75;60.57
44385;BME280;30101;32.778;34.994;2022-08-14T15:03:48;96886.13;;;27.69;60.65
44385;BME280;30101;32.778;34.994;2022-08-14T15:09:01;96874.56;;;27.63;60.82
44385;BME280;30101;32.778;34.994;2022-08-14T15:14:06;96872.81;;;27.59;60.73
44385;BME280;30101;32.778;34.994;2022-08-14T15:19:30;96876.50;;;27.51;61.03
44385;BME280;30101;32.778;34.994;2022-08-14T15:24:34;96875.91;;;27.45;61.42
44385;BME280;30101;32.778;34.994;2022-08-14T15:29:38;96872.94;;;27.38;61.51
44385;BME280;30101;32.778;34.994;2022-08-14T15:34:45;96884.00;;;27.29;61.74
44385;BME280;30101;32.778;34.994;2022-08-14T15:39:55;96878.03;;;27.27;61.87
44385;BME280;30101;32.778;34.994;2022-08-14T15:45:07;96878.50;;;27.17;61.98
44385;BME280;30101;32.778;34.994;2022-08-14T15:50:13;96884.19;;;27.12;62.05
44385;BME280;30101;32.778;34.994;2022-08-14T15:55:17;96873.16;;;27.00;62.28
44385;BME280;30101;32.778;34.994;2022-08-14T16:00:21;96883.88;;;26.93;62.43
44385;BME280;30101;32.778;34.994;2022-08-14T16:05:45;96884.63;;;26.81;62.47
44385;BME280;30101;32.778;34.994;2022-08-14T16:10:49;96887.91;;;26.74;62.64
44385;BME280;30101;32.778;34.994;2022-08-14T16:15:53;96886.38;;;26.65;62.76
44385;BME280;30101;32.778;34.994;2022-08-14T16:20:58;96884.53;;;26.56;63.03
44385;BME280;30101;32.778;34.994;2022-08-14T16:26:02;96883.81;;;26.47;62.87
44385;BME280;30101;32.778;34.994;2022-08-14T16:31:06;96879.50;;;26.38;63.38
44385;BME280;30101;32.778;34.994;2022-08-14T16:36:13;96882.75;;;26.31;63.78
44385;BME280;30101;32.778;34.994;2022-08-14T16:41:33;96888.63;;;26.21;63.59
44385;BME280;30101;32.778;34.994;2022-08-14T16:46:42;96906.25;;;26.11;63.88
44385;BME280;30101;32.778;34.994;2022-08-14T16:51:47;96907.56;;;26.05;63.96
44385;BME280;30101;32.778;34.994;2022-08-14T16:57:11;96914.03;;;26.00;64.35
44385;BME280;30101;32.778;34.994;2022-08-14T17:02:32;96922.09;;;25.97;64.35
44385;BME280;30101;32.778;34.994;2022-08-14T17:07:37;96925.47;;;25.94;64.66
44385;BME280;30101;32.778;34.994;2022-08-14T17:13:22;96932.09;;;25.93;64.59
44385;BME280;30101;32.778;34.994;2022-08-14T17:18:47;96928.75;;;25.87;64.79
44385;BME280;30101;32.778;34.994;2022-08-14T17:24:08;96943.09;;;25.84;64.77
44385;BME280;30101;32.778;34.994;2022-08-14T17:29:39;96941.44;;;25.83;65.07
44385;BME280;30101;32.778;34.994;2022-08-14T17:34:56;96945.66;;;25.80;64.82
44385;BME280;30101;32.778;34.994;2022-08-14T17:40:15;96957.72;;;25.79;64.74
44385;BME280;30101;32.778;34.994;2022-08-14T17:45:38;96968.22;;;25.77;65.38
44385;BME280;30101;32.778;34.994;2022-08-14T17:50:47;96961.44;;;25.75;65.28
44385;BME280;30101;32.778;34.994;2022-08-14T17:56:04;96966.56;;;25.76;65.32
44385;BME280;30101;32.778;34.994;2022-08-14T18:01:11;96967.38;;;25.77;65.14
44385;BME280;30101;32.778;34.994;2022-08-14T18:06:16;96970.44;;;25.75;65.62
44385;BME280;30101;32.778;34.994;2022-08-14T18:11:40;96979.16;;;25.77;65.54
44385;BME280;30101;32.778;34.994;2022-08-14T18:16:52;96983.66;;;25.73;65.59
44385;BME280;30101;32.778;34.994;2022-08-14T18:21:58;96981.41;;;25.67;65.65
44385;BME280;30101;32.778;34.994;2022-08-14T18:27:18;96993.31;;;25.62;65.71
44385;BME280;30101;32.778;34.994;2022-08-14T18:37:35;96996.88;;;25.54;65.98
44385;BME280;30101;32.778;34.994;2022-08-14T18:42:49;97005.41;;;25.52;66.07
44385;BME280;30101;32.778;34.994;2022-08-14T18:53:22;97000.56;;;25.49;65.96
44385;BME280;30101;32.778;34.994;2022-08-14T18:58:46;96999.31;;;25.47;66.12
44385;BME280;30101;32.778;34.994;2022-08-14T19:03:50;96988.88;;;25.40;66.12
44385;BME280;30101;32.778;34.994;2022-08-14T19:08:57;96983.56;;;25.35;66.16
44385;BME280;30101;32.778;34.994;2022-08-14T19:14:01;96996.25;;;25.31;66.11
44385;BME280;30101;32.778;34.994;2022-08-14T19:19:08;96999.66;;;25.28;66.60
44385;BME280;30101;32.778;34.994;2022-08-14T19:24:18;96990.66;;;25.27;66.59
44385;BME280;30101;32.778;34.994;2022-08-14T19:29:33;97002.88;;;25.30;66.47
44385;BME280;30101;32.778;34.994;2022-08-14T19:34:43;96996.44;;;25.35;66.40
44385;BME280;30101;32.778;34.994;2022-08-14T19:39:55;96994.84;;;25.34;66.46
44385;BME280;30101;32.778;34.994;2022-08-14T19:44:58;96995.00;;;25.28;66.44
44385;BME280;30101;32.778;34.994;2022-08-14T19:50:04;96992.91;;;25.25;66.72
44385;BME280;30101;32.778;34.994;2022-08-14T19:55:28;96990.16;;;25.25;66.61
44385;BME280;30101;32.778;34.994;2022-08-14T20:00:37;96984.53;;;25.31;66.96
44385;BME280;30101;32.778;34.994;2022-08-14T20:05:57;96981.34;;;25.28;66.82
44385;BME280;30101;32.778;34.994;2022-08-14T20:11:06;96981.66;;;25.27;67.07
44385;BME280;30101;32.778;34.994;2022-08-14T20:16:31;96986.97;;;25.23;67.23
44385;BME280;30101;32.778;34.994;2022-08-14T20:21:50;96990.50;;;25.24;66.92
44385;BME280;30101;32.778;34.994;2022-08-14T20:27:35;96988.72;;;25.19;66.87
44385;BME280;30101;32.778;34.994;2022-08-14T20:38:02;96995.31;;;25.18;67.24
44385;BME280;30101;32.778;34.994;2022-08-14T20:43:34;96999.19;;;25.17;66.81
44385;BME280;30101;32.778;34.994;2022-08-14T20:48:38;96995.00;;;25.11;67.27
44385;BME280;30101;32.778;34.994;2022-08-14T20:54:00;96996.47;;;25.09;67.21
44385;BME280;30101;32.778;34.994;2022-08-14T20:59:18;96995.78;;;25.03;67.21
44385;BME280;30101;32.778;34.994;2022-08-14T21:09:29;96996.75;;;24.98;67.37
44385;BME280;30101;32.778;34.994;2022-08-14T21:14:54;96995.63;;;24.99;67.61
44385;BME280;30101;32.778;34.994;2022-08-14T21:20:00;96998.34;;;24.99;67.58
44385;BME280;30101;32.778;34.994;2022-08-14T21:25:23;97000.28;;;24.99;67.76
44385;BME280;30101;32.778;34.994;2022-08-14T21:30:31;97002.22;;;24.98;67.63
44385;BME280;30101;32.778;34.994;2022-08-14T21:35:55;96999.81;;;24.97;67.74
44385;BME280;30101;32.778;34.994;2022-08-14T21:41:04;96997.09;;;24.97;67.86
44385;BME280;30101;32.778;34.994;2022-08-14T21:46:29;97003.34;;;24.97;67.81
44385;BME280;30101;32.778;34.994;2022-08-14T21:51:34;97003.19;;;25.02;67.58
44385;BME280;30101;32.778;34.994;2022-08-14T21:56:58;97001.75;;;25.05;67.67
44385;BME280;30101;32.778;34.994;2022-08-14T22:02:04;96990.63;;;25.01;67.62
44385;BME280;30101;32.778;34.994;2022-08-14T22:07:12;96995.16;;;25.06;67.49
44385;BME280;30101;32.778;34.994;2022-08-14T22:12:19;96992.75;;;25.05;67.66
44385;BME280;30101;32.778;34.994;2022-08-14T22:17:44;96990.63;;;25.01;67.59
44385;BME280;30101;32.778;34.994;2022-08-14T22:22:59;96999.81;;;24.97;67.43
44385;BME280;30101;32.778;34.994;2022-08-14T22:28:06;96996.91;;;24.93;68.03
44385;BME280;30101;32.778;34.994;2022-08-14T22:33:15;96994.34;;;24.88;67.57
44385;BME280;30101;32.778;34.994;2022-08-14T22:38:19;96995.63;;;24.82;67.97
44385;BME280;30101;32.778;34.994;2022-08-14T22:43:41;96987.59;;;24.77;68.08
44385;BME280;30101;32.778;34.994;2022-08-14T22:48:45;96992.88;;;24.82;67.93
44385;BME280;30101;32.778;34.994;2022-08-14T22:53:52;96985.03;;;24.81;67.99
44385;BME280;30101;32.778;34.994;2022-08-14T22:58:59;96986.47;;;24.78;68.02
44385;BME280;30101;32.778;34.994;2022-08-14T23:04:04;96992.25;;;24.77;68.49
44385;BME280;30101;32.778;34.994;2022-08-14T23:09:08;96988.22;;;24.74;68.08
44385;BME280;30101;32.778;34.994;2022-08-14T23:14:31;96975.72;;;24.73;68.46
44385;BME280;30101;32.778;34.994;2022-08-14T23:19:35;96986.16;;;24.80;68.24
44385;BME280;30101;32.778;34.994;2022-08-14T23:24:39;96977.31;;;24.83;68.56
44385;BME280;30101;32.778;34.994;2022-08-14T23:29:44;96978.13;;;24.83;68.18
44385;BME280;30101;32.778;34.994;2022-08-14T23:34:51;96980.22;;;24.78;68.32
44385;BME280;30101;32.778;34.994;2022-08-14T23:39:56;96974.09;;;24.72;68.71
44385;BME280;30101;32.778;34.994;2022-08-14T23:44:59;96974.72;;;24.69;68.25
44385;BME280;30101;32.778;34.994;2022-08-14T23:50:05;96973.47;;;24.66;68.39
44385;BME280;30101;32.778;34.994;2022-08-14T23:55:32;96971.06;;;24.65;68.35
